Time;durP1;ratioP1;P1;durP2;ratioP2;P2;SDS_P1;SDS_P2;PMS_P1;PMS_P2;Temp;Humidity;BMP_temperature;BMP_pressure;BME280_temperature;BME280_humidity;BME280_pressure;Samples;Min_cycle;Max_cycle;Signal;HPM_P1;HPM_P2
2022/11/24 00:03:24;;;;;;;13.57;2.70;;;;;;;;;;8334272;28;20410;-63
2022/11/24 00:07:25;;;;;;;15.15;2.78;;;;;;;;;;8333964;28;20031;-62
2022/11/24 00:11:27;;;;;;;11.52;2.85;;;;;;;;;;8336690;28;20017;-63
2022/11/24 00:15:27;;;;;;;16.63;3.13;;;;;;;;;;8333797;28;20040;-63
2022/11/24 00:19:28;;;;;;;9.60;2.70;;;;;;;;;;8334653;28;20080;-63
2022/11/24 00:23:28;;;;;;;17.58;2.80;;;;;;;;;;8336705;28;20385;-62
2022/11/24 00:27:29;;;;;;;14.18;2.90;;;;;;;;;;8333992;28;20017;-63
2022/11/24 00:31:30;;;;;;;11.83;2.90;;;;;;;;;;8332809;28;20090;-62
2022/11/24 00:35:30;;;;;;;13.68;2.75;;;;;;;;;;8332948;28;20394;-62
2022/11/24 00:39:31;;;;;;;12.70;2.97;;;;;;;;;;8324734;28;20068;-63
2022/11/24 00:43:31;;;;;;;13.68;2.97;;;;;;;;;;8334003;28;20275;-65
2022/11/24 00:47:31;;;;;;;12.98;3.00;;;;;;;;;;8334312;28;20033;-64
2022/11/24 00:51:32;;;;;;;11.50;2.88;;;;;;;;;;8315610;28;20024;-62
2022/11/24 00:55:32;;;;;;;16.33;2.87;;;;;;;;;;8333881;28;20901;-63
2022/11/24 00:59:32;;;;;;;10.27;2.83;;;;;;;;;;8333474;28;20726;-64
2022/11/24 01:03:33;;;;;;;12.50;3.42;;;;;;;;;;8331746;28;20397;-64
2022/11/24 01:07:33;;;;;;;12.13;3.45;;;;;;;;;;8331738;28;20029;-62
2022/11/24 01:15:53;;;;;;;21.83;4.00;;;;;;;;;;8332748;28;20068;-62
2022/11/24 01:19:53;;;;;;;14.80;3.67;;;;;;;;;;8336584;28;20029;-63
2022/11/24 01:23:56;;;;;;;15.57;3.30;;;;;;;;;;8333803;28;20260;-63
2022/11/24 01:27:56;;;;;;;14.32;3.22;;;;;;;;;;8332709;28;20136;-63
2022/11/24 01:31:56;;;;;;;16.17;4.05;;;;;;;;;;8332463;28;20141;-63
2022/11/24 01:35:57;;;;;;;14.37;3.87;;;;;;;;;;8333628;28;20032;-63
2022/11/24 01:39:57;;;;;;;15.65;3.53;;;;;;;;;;8337213;28;20264;-64
2022/11/24 01:43:58;;;;;;;19.52;3.35;;;;;;;;;;8339991;28;20047;-62
2022/11/24 01:47:59;;;;;;;15.18;3.53;;;;;;;;;;8339207;28;20761;-62
2022/11/24 01:52:04;;;;;;;12.63;3.72;;;;;;;;;;8340097;28;20020;-62
2022/11/24 01:56:04;;;;;;;12.38;3.53;;;;;;;;;;8339844;28;20052;-62
2022/11/24 02:00:06;;;;;;;17.98;3.63;;;;;;;;;;8339177;28;20032;-63
2022/11/24 02:04:09;;;;;;;15.32;3.38;;;;;;;;;;8337650;28;20027;-62
2022/11/24 02:08:13;;;;;;;14.40;3.33;;;;;;;;;;8339344;28;20028;-62
2022/11/24 02:12:14;;;;;;;17.15;3.20;;;;;;;;;;8338145;28;20122;-62
2022/11/24 02:16:14;;;;;;;11.38;2.60;;;;;;;;;;8336997;28;20082;-62
2022/11/24 02:20:15;;;;;;;16.52;2.75;;;;;;;;;;8339932;28;20031;-63
2022/11/24 02:24:36;;;;;;;16.58;2.92;;;;;;;;;;8339033;28;20021;-63
2022/11/24 02:28:37;;;;;;;18.77;3.20;;;;;;;;;;8337544;28;20099;-64
2022/11/24 02:32:40;;;;;;;17.23;3.20;;;;;;;;;;8338095;28;20289;-63
2022/11/24 02:36:41;;;;;;;14.32;3.25;;;;;;;;;;8337744;28;20017;-62
2022/11/24 02:40:43;;;;;;;15.38;3.88;;;;;;;;;;8337299;28;20724;-62
2022/11/24 02:44:46;;;;;;;18.20;3.50;;;;;;;;;;8336880;28;20029;-63
2022/11/24 02:48:46;;;;;;;23.00;3.80;;;;;;;;;;8337934;28;20556;-63
2022/11/24 02:52:47;;;;;;;12.82;3.08;;;;;;;;;;8338063;28;20832;-63
2022/11/24 02:56:47;;;;;;;20.55;3.47;;;;;;;;;;8337303;28;20033;-63
2022/11/24 03:00:47;;;;;;;13.10;3.60;;;;;;;;;;8337690;28;20040;-62
2022/11/24 03:04:49;;;;;;;17.60;3.55;;;;;;;;;;8337800;28;20071;-62
2022/11/24 03:08:49;;;;;;;18.08;3.20;;;;;;;;;;8336582;28;20039;-62
2022/11/24 03:12:49;;;;;;;23.45;4.43;;;;;;;;;;8335355;28;20709;-62
2022/11/24 03:16:49;;;;;;;25.90;3.72;;;;;;;;;;8336107;28;20155;-63
2022/11/24 03:20:50;;;;;;;17.77;3.30;;;;;;;;;;8321319;28;20052;-62
2022/11/24 03:24:50;;;;;;;19.33;3.95;;;;;;;;;;8337309;28;20669;-62
2022/11/24 03:28:54;;;;;;;27.95;4.20;;;;;;;;;;8337675;28;20037;-67
2022/11/24 03:32:55;;;;;;;16.20;3.50;;;;;;;;;;8337369;28;20505;-62
2022/11/24 03:36:56;;;;;;;21.98;3.70;;;;;;;;;;8335583;28;20160;-62
2022/11/24 03:40:56;;;;;;;22.35;3.78;;;;;;;;;;8336122;28;20017;-62
2022/11/24 03:44:56;;;;;;;22.02;3.97;;;;;;;;;;8336264;28;20603;-62
2022/11/24 03:48:56;;;;;;;20.27;3.70;;;;;;;;;;8335195;28;20082;-62
2022/11/24 03:52:57;;;;;;;23.48;4.15;;;;;;;;;;8336042;28;20321;-62
2022/11/24 03:56:57;;;;;;;18.67;3.50;;;;;;;;;;8333277;28;20024;-62
2022/11/24 04:00:57;;;;;;;17.27;3.30;;;;;;;;;;8337465;28;20952;-62
2022/11/24 04:04:58;;;;;;;20.38;3.50;;;;;;;;;;8339906;28;20323;-62
2022/11/24 04:08:58;;;;;;;21.23;4.10;;;;;;;;;;8336412;28;20784;-62
2022/11/24 04:12:59;;;;;;;14.98;3.35;;;;;;;;;;8338428;28;20044;-63
2022/11/24 04:16:59;;;;;;;25.05;3.67;;;;;;;;;;8335717;28;20518;-62
2022/11/24 04:20:59;;;;;;;28.75;4.15;;;;;;;;;;8336996;28;20016;-62
2022/11/24 04:24:59;;;;;;;20.95;3.85;;;;;;;;;;8335867;28;20029;-62
2022/11/24 04:28:59;;;;;;;19.77;3.22;;;;;;;;;;8337450;28;20078;-63
2022/11/24 04:33:00;;;;;;;26.70;4.18;;;;;;;;;;8338582;28;21019;-63
2022/11/24 04:37:01;;;;;;;26.90;3.83;;;;;;;;;;8335558;28;20124;-62
2022/11/24 04:41:02;;;;;;;21.47;3.77;;;;;;;;;;8336585;28;20032;-62
2022/11/24 04:45:03;;;;;;;27.48;4.03;;;;;;;;;;8337453;28;20335;-62
2022/11/24 04:49:04;;;;;;;19.48;3.25;;;;;;;;;;8337396;28;20039;-62
2022/11/24 04:53:04;;;;;;;24.75;4.60;;;;;;;;;;8336308;28;20023;-63
2022/11/24 04:57:04;;;;;;;17.83;3.33;;;;;;;;;;8335672;28;20021;-62
2022/11/24 05:01:05;;;;;;;23.83;3.80;;;;;;;;;;8336037;28;20039;-62
2022/11/24 05:05:07;;;;;;;15.95;3.22;;;;;;;;;;8336807;28;20110;-66
2022/11/24 05:09:07;;;;;;;16.58;3.47;;;;;;;;;;8337318;28;20087;-63
2022/11/24 05:13:09;;;;;;;17.42;3.47;;;;;;;;;;8339111;28;20035;-62
2022/11/24 05:17:11;;;;;;;18.05;3.58;;;;;;;;;;8340900;28;20053;-62
2022/11/24 05:21:11;;;;;;;15.70;3.03;;;;;;;;;;8342653;28;20039;-63
2022/11/24 05:25:13;;;;;;;12.50;2.75;;;;;;;;;;8342847;28;20024;-62
2022/11/24 05:29:13;;;;;;;19.67;2.72;;;;;;;;;;8344404;28;20033;-62
2022/11/24 05:33:17;;;;;;;17.92;3.17;;;;;;;;;;8342150;28;20556;-63
2022/11/24 05:37:18;;;;;;;16.35;3.20;;;;;;;;;;8343219;28;20028;-62
2022/11/24 05:41:18;;;;;;;13.65;2.33;;;;;;;;;;8342834;28;20017;-62
2022/11/24 05:45:19;;;;;;;16.13;2.60;;;;;;;;;;8339801;28;20036;-63
2022/11/24 05:49:20;;;;;;;11.50;2.60;;;;;;;;;;8338903;28;20024;-62
2022/11/24 05:53:20;;;;;;;13.27;2.13;;;;;;;;;;8341706;28;20072;-62
2022/11/24 05:57:20;;;;;;;13.07;2.60;;;;;;;;;;8342578;28;20143;-62
2022/11/24 06:01:20;;;;;;;13.93;2.47;;;;;;;;;;8342902;28;20037;-62
2022/11/24 06:05:21;;;;;;;13.13;2.25;;;;;;;;;;8340306;28;20144;-62
2022/11/24 06:09:21;;;;;;;13.77;2.67;;;;;;;;;;8340769;28;20477;-62
2022/11/24 06:13:21;;;;;;;7.97;2.00;;;;;;;;;;8341130;28;20024;-63
2022/11/24 06:17:21;;;;;;;12.40;2.63;;;;;;;;;;8339595;28;20049;-63
2022/11/24 06:21:22;;;;;;;9.13;2.47;;;;;;;;;;8342465;28;20029;-63
2022/11/24 06:25:22;;;;;;;9.20;2.33;;;;;;;;;;8338715;28;20480;-63
2022/11/24 06:29:22;;;;;;;9.60;2.33;;;;;;;;;;8339945;28;20048;-62
2022/11/24 06:33:22;;;;;;;11.23;2.03;;;;;;;;;;8339257;28;20274;-62
2022/11/24 06:37:23;;;;;;;8.40;2.03;;;;;;;;;;8339912;28;20077;-61
2022/11/24 06:41:23;;;;;;;13.88;2.78;;;;;;;;;;8341006;28;20271;-63
2022/11/24 06:45:24;;;;;;;11.95;2.17;;;;;;;;;;8341847;28;20125;-63
2022/11/24 06:49:24;;;;;;;8.88;1.88;;;;;;;;;;8339932;28;20058;-63
2022/11/24 06:53:24;;;;;;;10.88;2.42;;;;;;;;;;8342072;28;20511;-62
2022/11/24 06:57:26;;;;;;;9.13;2.10;;;;;;;;;;8340563;28;20025;-62
2022/11/24 07:01:27;;;;;;;10.85;2.67;;;;;;;;;;8337849;28;20036;-62
2022/11/24 07:05:27;;;;;;;11.77;2.35;;;;;;;;;;8340005;28;20573;-62
2022/11/24 07:09:27;;;;;;;13.07;2.33;;;;;;;;;;8340669;28;20635;-62
2022/11/24 07:13:27;;;;;;;6.88;1.85;;;;;;;;;;8339407;28;20122;-62
2022/11/24 07:17:27;;;;;;;9.85;2.60;;;;;;;;;;8339013;28;20059;-62
2022/11/24 07:21:29;;;;;;;8.35;2.05;;;;;;;;;;8340133;28;20024;-62
2022/11/24 07:25:29;;;;;;;11.77;2.50;;;;;;;;;;8340620;28;20028;-62
2022/11/24 07:29:29;;;;;;;8.15;1.83;;;;;;;;;;8340700;28;20116;-62
2022/11/24 07:33:33;;;;;;;7.57;2.00;;;;;;;;;;8337747;28;20037;-62
2022/11/24 07:37:33;;;;;;;4.73;1.87;;;;;;;;;;8337871;28;20025;-62
2022/11/24 07:41:33;;;;;;;9.60;2.00;;;;;;;;;;8340276;28;20037;-63
2022/11/24 07:45:33;;;;;;;5.93;2.10;;;;;;;;;;8337630;28;20033;-62
2022/11/24 07:49:34;;;;;;;11.68;2.20;;;;;;;;;;8338496;28;20016;-61
2022/11/24 07:53:34;;;;;;;9.73;2.40;;;;;;;;;;8337532;28;20074;-63
2022/11/24 07:57:35;;;;;;;9.80;2.10;;;;;;;;;;8338485;28;20291;-62
2022/11/24 08:01:35;;;;;;;10.07;2.15;;;;;;;;;;8342136;28;20028;-65
2022/11/24 08:05:35;;;;;;;13.38;2.55;;;;;;;;;;8347677;28;20943;-62
2022/11/24 08:09:35;;;;;;;11.20;2.95;;;;;;;;;;8348702;28;20028;-62
2022/11/24 08:13:35;;;;;;;8.40;2.35;;;;;;;;;;8345952;28;20724;-62
2022/11/24 08:17:36;;;;;;;11.82;2.25;;;;;;;;;;8354028;28;20044;-62
2022/11/24 08:21:36;;;;;;;10.83;2.77;;;;;;;;;;8353836;28;20028;-62
2022/11/24 08:25:37;;;;;;;13.85;3.33;;;;;;;;;;8354357;28;20262;-62
2022/11/24 08:29:37;;;;;;;14.32;4.35;;;;;;;;;;8353132;28;20028;-63
2022/11/24 08:33:37;;;;;;;15.55;2.83;;;;;;;;;;8355159;28;20032;-63
2022/11/24 08:37:38;;;;;;;15.18;2.67;;;;;;;;;;8356784;28;20035;-62
2022/11/24 08:41:38;;;;;;;11.15;2.67;;;;;;;;;;8354978;28;20124;-62
2022/11/24 08:45:38;;;;;;;10.05;2.28;;;;;;;;;;8344584;28;20146;-62
2022/11/24 08:49:38;;;;;;;12.32;2.45;;;;;;;;;;8308373;28;20385;-62
2022/11/24 08:53:39;;;;;;;10.70;2.40;;;;;;;;;;8295616;28;20028;-62
2022/11/24 08:57:39;;;;;;;14.18;2.85;;;;;;;;;;8308613;28;20319;-62
2022/11/24 09:01:40;;;;;;;11.02;2.45;;;;;;;;;;8321596;28;20820;-63
2022/11/24 09:05:41;;;;;;;12.60;2.20;;;;;;;;;;8341741;28;20689;-62
2022/11/24 09:09:41;;;;;;;10.35;2.10;;;;;;;;;;8343342;28;20064;-62
2022/11/24 09:13:41;;;;;;;10.35;1.85;;;;;;;;;;8341179;28;20081;-62
2022/11/24 09:17:42;;;;;;;10.43;1.95;;;;;;;;;;8340672;28;20056;-62
2022/11/24 09:21:42;;;;;;;7.85;1.80;;;;;;;;;;8343346;28;20032;-62
2022/11/24 09:25:42;;;;;;;12.30;2.53;;;;;;;;;;8338845;28;20059;-63
2022/11/24 09:29:43;;;;;;;7.80;1.70;;;;;;;;;;8340542;28;20027;-62
2022/11/24 09:33:43;;;;;;;9.68;2.00;;;;;;;;;;8340257;28;20167;-62
2022/11/24 09:37:44;;;;;;;12.38;2.83;;;;;;;;;;8340697;28;20016;-62
2022/11/24 09:42:01;;;;;;;9.82;1.95;;;;;;;;;;8340977;28;20417;-62
2022/11/24 09:46:10;;;;;;;8.95;2.00;;;;;;;;;;8340272;28;20068;-62
2022/11/24 09:50:15;;;;;;;8.15;1.75;;;;;;;;;;8342448;28;20025;-62
2022/11/24 09:54:18;;;;;;;9.30;2.05;;;;;;;;;;8342574;28;20980;-62
2022/11/24 09:58:36;;;;;;;11.43;1.85;;;;;;;;;;8340628;28;20134;-63
2022/11/24 10:02:36;;;;;;;9.68;1.85;;;;;;;;;;8343993;28;20045;-62
2022/11/24 10:06:43;;;;;;;7.53;1.60;;;;;;;;;;8342176;28;20099;-61
2022/11/24 10:10:51;;;;;;;7.80;2.35;;;;;;;;;;8343053;28;20032;-62
2022/11/24 10:14:58;;;;;;;11.68;1.73;;;;;;;;;;8341519;28;20036;-61
2022/11/24 10:19:04;;;;;;;11.00;1.80;;;;;;;;;;8340490;28;20913;-62
2022/11/24 10:23:19;;;;;;;8.27;1.33;;;;;;;;;;8341279;28;20433;-62
2022/11/24 10:27:26;;;;;;;8.07;1.77;;;;;;;;;;8339157;28;20087;-62
2022/11/24 10:31:36;;;;;;;14.73;2.38;;;;;;;;;;8324188;28;20040;-63
2022/11/24 10:35:39;;;;;;;8.98;2.10;;;;;;;;;;8340863;28;20107;-62
2022/11/24 10:39:42;;;;;;;9.00;1.65;;;;;;;;;;8342495;28;20031;-62
2022/11/24 10:43:42;;;;;;;9.30;2.38;;;;;;;;;;8340813;28;20056;-62
2022/11/24 10:47:44;;;;;;;11.73;2.08;;;;;;;;;;8339806;28;20111;-63
2022/11/24 10:52:04;;;;;;;8.13;1.85;;;;;;;;;;8340440;28;20020;-62
2022/11/24 10:56:04;;;;;;;9.18;1.90;;;;;;;;;;8341305;28;21029;-62
2022/11/24 11:00:17;;;;;;;9.38;1.88;;;;;;;;;;8339753;28;20043;-62
2022/11/24 11:04:18;;;;;;;7.50;1.92;;;;;;;;;;8338994;28;20057;-62
2022/11/24 11:08:21;;;;;;;9.43;1.83;;;;;;;;;;8339738;28;20821;-62
2022/11/24 11:12:26;;;;;;;8.15;1.92;;;;;;;;;;8339860;28;20027;-62
2022/11/24 11:16:31;;;;;;;11.38;2.42;;;;;;;;;;8320047;28;20500;-62
2022/11/24 11:20:32;;;;;;;6.40;1.38;;;;;;;;;;8339965;28;20031;-62
2022/11/24 11:24:32;;;;;;;12.00;1.95;;;;;;;;;;8339892;28;20670;-62
2022/11/24 11:28:33;;;;;;;7.68;2.00;;;;;;;;;;8339832;28;20031;-62
2022/11/24 11:32:33;;;;;;;8.20;1.85;;;;;;;;;;8337397;28;20078;-62
2022/11/24 11:36:35;;;;;;;10.32;1.80;;;;;;;;;;8339997;28;20017;-62
2022/11/24 11:40:35;;;;;;;10.88;2.00;;;;;;;;;;8338546;28;20453;-62
2022/11/24 11:44:41;;;;;;;8.98;1.80;;;;;;;;;;8336922;28;20024;-62
2022/11/24 11:48:46;;;;;;;11.43;2.10;;;;;;;;;;8338743;28;20723;-61
2022/11/24 11:52:46;;;;;;;9.10;1.90;;;;;;;;;;8337975;28;20118;-63
2022/11/24 11:56:48;;;;;;;7.75;1.95;;;;;;;;;;8339331;28;20028;-62
2022/11/24 12:01:01;;;;;;;11.38;2.10;;;;;;;;;;8337036;28;20039;-63
2022/11/24 12:05:31;;;;;;;8.07;2.20;;;;;;;;;;8340612;28;20541;-64
2022/11/24 12:09:40;;;;;;;10.43;1.63;;;;;;;;;;8267821;28;20044;-62
2022/11/24 12:13:43;;;;;;;8.48;2.13;;;;;;;;;;8339241;28;20028;-62
2022/11/24 12:18:02;;;;;;;9.18;2.08;;;;;;;;;;8337304;28;20045;-63
2022/11/24 12:22:17;;;;;;;9.50;2.38;;;;;;;;;;8337863;28;20029;-62
2022/11/24 12:26:23;;;;;;;10.00;1.77;;;;;;;;;;8337125;28;20125;-62
2022/11/24 12:30:23;;;;;;;9.32;2.53;;;;;;;;;;8335913;28;20655;-62
2022/11/24 12:34:24;;;;;;;7.72;1.85;;;;;;;;;;8336394;28;20135;-62
2022/11/24 12:38:36;;;;;;;6.68;2.00;;;;;;;;;;8335392;28;20028;-62
2022/11/24 12:42:44;;;;;;;13.43;2.75;;;;;;;;;;8337560;28;20016;-62
2022/11/24 12:46:55;;;;;;;9.85;2.28;;;;;;;;;;8337935;28;20037;-62
2022/11/24 12:50:57;;;;;;;9.10;2.05;;;;;;;;;;8338227;28;20017;-62
2022/11/24 12:54:57;;;;;;;5.95;1.73;;;;;;;;;;8331936;28;20039;-62
2022/11/24 12:59:18;;;;;;;10.60;2.20;;;;;;;;;;8335476;28;20663;-62
2022/11/24 13:03:18;;;;;;;10.55;2.03;;;;;;;;;;8332744;28;20130;-62
2022/11/24 13:07:25;;;;;;;8.23;2.33;;;;;;;;;;8333749;28;20021;-67
2022/11/24 13:11:33;;;;;;;10.57;2.25;;;;;;;;;;8333733;28;20025;-62
2022/11/24 13:15:52;;;;;;;7.25;1.88;;;;;;;;;;8332905;28;20053;-62
2022/11/24 13:20:12;;;;;;;11.35;2.22;;;;;;;;;;8334636;28;20051;-62
2022/11/24 13:24:15;;;;;;;10.50;2.40;;;;;;;;;;8334446;28;20021;-62
2022/11/24 13:28:35;;;;;;;12.63;2.13;;;;;;;;;;8334441;28;20141;-62
2022/11/24 13:32:35;;;;;;;9.10;1.88;;;;;;;;;;8335211;28;20421;-62
2022/11/24 13:36:51;;;;;;;10.75;2.08;;;;;;;;;;8341527;28;20082;-62
2022/11/24 13:40:51;;;;;;;13.45;2.15;;;;;;;;;;8341291;28;20025;-65
2022/11/24 13:44:52;;;;;;;10.87;2.03;;;;;;;;;;8340098;28;20020;-62
2022/11/24 13:48:57;;;;;;;11.88;2.15;;;;;;;;;;8339046;28;20379;-62
2022/11/24 13:53:09;;;;;;;10.85;1.70;;;;;;;;;;8341996;28;20021;-62
2022/11/24 13:57:28;;;;;;;10.38;2.17;;;;;;;;;;8338997;28;20131;-62
2022/11/24 14:01:33;;;;;;;8.68;2.00;;;;;;;;;;8339296;28;20036;-62
2022/11/24 14:05:37;;;;;;;10.52;2.38;;;;;;;;;;8338573;28;20024;-61
2022/11/24 14:09:40;;;;;;;11.52;2.42;;;;;;;;;;8339901;28;20025;-61
2022/11/24 14:13:41;;;;;;;9.27;2.08;;;;;;;;;;8339143;28;20028;-62
2022/11/24 14:17:41;;;;;;;7.53;1.80;;;;;;;;;;8339582;28;20063;-61
2022/11/24 14:21:43;;;;;;;6.40;1.58;;;;;;;;;;8339101;28;20021;-62
2022/11/24 14:25:48;;;;;;;8.30;2.22;;;;;;;;;;8342967;28;20024;-62
2022/11/24 14:29:52;;;;;;;9.40;2.00;;;;;;;;;;8342163;28;20067;-62
2022/11/24 14:34:10;;;;;;;11.40;2.05;;;;;;;;;;8341508;28;20040;-64
2022/11/24 14:38:11;;;;;;;10.18;1.85;;;;;;;;;;8341616;28;20105;-63
2022/11/24 14:42:22;;;;;;;7.97;1.48;;;;;;;;;;8341785;28;20345;-62
2022/11/24 14:46:22;;;;;;;12.60;2.08;;;;;;;;;;8339646;28;20028;-62
2022/11/24 14:50:22;;;;;;;10.90;2.03;;;;;;;;;;8341496;28;20013;-62
2022/11/24 14:54:23;;;;;;;11.20;2.40;;;;;;;;;;8341462;28;20020;-62
2022/11/24 14:58:29;;;;;;;10.60;2.10;;;;;;;;;;8338323;28;20547;-62
2022/11/24 15:02:37;;;;;;;8.07;2.17;;;;;;;;;;8338265;28;20426;-61
2022/11/24 15:06:38;;;;;;;10.82;2.40;;;;;;;;;;8337166;28;20021;-62
2022/11/24 15:10:39;;;;;;;12.38;2.22;;;;;;;;;;8337679;28;20607;-62
2022/11/24 15:14:39;;;;;;;11.73;1.65;;;;;;;;;;8336040;28;20098;-61
2022/11/24 15:18:41;;;;;;;9.90;1.90;;;;;;;;;;8336299;28;20033;-62
2022/11/24 15:22:44;;;;;;;8.65;2.70;;;;;;;;;;8336766;28;20021;-62
2022/11/24 15:26:45;;;;;;;11.63;3.60;;;;;;;;;;8337331;28;20043;-62
2022/11/24 15:30:45;;;;;;;13.05;4.00;;;;;;;;;;8337765;28;20561;-63
2022/11/24 15:34:45;;;;;;;12.95;4.05;;;;;;;;;;8336793;28;20028;-62
2022/11/24 15:38:45;;;;;;;13.40;2.58;;;;;;;;;;8336008;28;20036;-62
2022/11/24 15:42:53;;;;;;;8.23;1.98;;;;;;;;;;8337495;28;20056;-62
2022/11/24 15:46:54;;;;;;;8.50;1.80;;;;;;;;;;8336967;28;20175;-62
2022/11/24 15:50:55;;;;;;;7.65;2.08;;;;;;;;;;8337115;28;20068;-62
2022/11/24 15:54:55;;;;;;;8.63;2.10;;;;;;;;;;8336597;28;20021;-62
2022/11/24 15:58:56;;;;;;;13.38;2.85;;;;;;;;;;8335296;28;20505;-62
2022/11/24 16:02:56;;;;;;;9.07;2.80;;;;;;;;;;8336938;28;20033;-62
2022/11/24 16:06:56;;;;;;;10.95;2.45;;;;;;;;;;8334400;28;21008;-62
2022/11/24 16:10:57;;;;;;;8.63;2.20;;;;;;;;;;8332170;28;20060;-62
2022/11/24 16:14:57;;;;;;;8.60;1.80;;;;;;;;;;8335183;28;20028;-61
2022/11/24 16:18:57;;;;;;;11.02;2.85;;;;;;;;;;8334171;28;20033;-62
2022/11/24 16:22:57;;;;;;;8.20;2.03;;;;;;;;;;8334640;28;20025;-61
2022/11/24 16:26:57;;;;;;;9.25;2.72;;;;;;;;;;8334862;28;20416;-61
2022/11/24 16:30:58;;;;;;;10.82;3.47;;;;;;;;;;8334550;28;20036;-62
2022/11/24 16:34:58;;;;;;;9.68;3.20;;;;;;;;;;8331577;28;20808;-62
2022/11/24 16:38:59;;;;;;;9.87;3.30;;;;;;;;;;8337391;28;20056;-61
2022/11/24 16:42:59;;;;;;;13.95;3.00;;;;;;;;;;8335107;28;20267;-62
2022/11/24 16:46:59;;;;;;;15.40;3.63;;;;;;;;;;8333574;28;20033;-62
2022/11/24 16:51:03;;;;;;;12.02;2.97;;;;;;;;;;8330948;28;20021;-62
2022/11/24 16:55:05;;;;;;;9.10;1.98;;;;;;;;;;8326682;28;20032;-62
2022/11/24 16:59:05;;;;;;;11.65;2.67;;;;;;;;;;8328405;28;20094;-62
2022/11/24 17:03:06;;;;;;;9.85;2.90;;;;;;;;;;8329805;28;20123;-62
2022/11/24 17:07:06;;;;;;;6.80;2.03;;;;;;;;;;8328134;28;20040;-62
2022/11/24 17:11:08;;;;;;;10.13;3.30;;;;;;;;;;8332809;28;20771;-62
2022/11/24 17:15:08;;;;;;;10.60;2.70;;;;;;;;;;8334298;28;20035;-61
2022/11/24 17:19:09;;;;;;;9.35;2.33;;;;;;;;;;8331988;28;20009;-61
2022/11/24 17:23:09;;;;;;;7.28;2.10;;;;;;;;;;8327795;28;20028;-61
2022/11/24 17:27:09;;;;;;;11.35;2.63;;;;;;;;;;8325628;28;20039;-61
2022/11/24 17:31:23;;;;;;;9.10;2.30;;;;;;;;;;8326798;28;20553;-61
2022/11/24 17:35:23;;;;;;;7.10;2.05;;;;;;;;;;8327483;28;20028;-61
2022/11/24 17:39:25;;;;;;;8.80;2.63;;;;;;;;;;8332062;28;20025;-60
2022/11/24 17:43:26;;;;;;;8.07;2.70;;;;;;;;;;8332342;28;20186;-61
2022/11/24 17:47:29;;;;;;;11.00;3.13;;;;;;;;;;8327505;28;20185;-61
2022/11/24 17:51:29;;;;;;;12.50;2.60;;;;;;;;;;8325587;28;20025;-61
2022/11/24 17:55:29;;;;;;;11.52;2.40;;;;;;;;;;8327704;28;20779;-61
2022/11/24 17:59:29;;;;;;;11.70;2.58;;;;;;;;;;8326933;28;20495;-61
2022/11/24 18:03:31;;;;;;;10.00;2.30;;;;;;;;;;8326298;28;20095;-61
2022/11/24 18:07:33;;;;;;;12.90;2.22;;;;;;;;;;8325757;28;20621;-62
2022/11/24 18:11:33;;;;;;;8.60;1.98;;;;;;;;;;8326504;28;20365;-61
2022/11/24 18:15:34;;;;;;;14.05;2.10;;;;;;;;;;8324753;28;20040;-61
2022/11/24 18:19:34;;;;;;;7.28;2.20;;;;;;;;;;8326747;28;20040;-61
2022/11/24 18:23:34;;;;;;;9.35;2.50;;;;;;;;;;8329632;28;20032;-61
2022/11/24 18:27:35;;;;;;;7.95;1.90;;;;;;;;;;8328024;28;20485;-62
2022/11/24 18:31:35;;;;;;;11.15;2.63;;;;;;;;;;8328467;28;20098;-61
2022/11/24 18:35:36;;;;;;;12.20;2.25;;;;;;;;;;8326947;28;20071;-62
2022/11/24 18:39:36;;;;;;;12.68;2.80;;;;;;;;;;8329765;28;20521;-61
2022/11/24 18:43:37;;;;;;;7.38;2.15;;;;;;;;;;8327403;28;20482;-61
2022/11/24 18:47:37;;;;;;;10.07;2.70;;;;;;;;;;8326470;28;20025;-61
2022/11/24 18:51:37;;;;;;;6.97;2.97;;;;;;;;;;8327890;28;20577;-61
2022/11/24 18:55:37;;;;;;;10.70;2.40;;;;;;;;;;8327126;28;20020;-61
2022/11/24 18:59:37;;;;;;;12.30;3.22;;;;;;;;;;8327918;28;20016;-61
2022/11/24 19:03:44;;;;;;;8.70;3.17;;;;;;;;;;8334115;28;20608;-61
2022/11/24 19:07:44;;;;;;;13.75;3.80;;;;;;;;;;8336769;28;20028;-62
2022/11/24 19:11:45;;;;;;;9.93;3.00;;;;;;;;;;8338091;28;20031;-62
2022/11/24 19:15:47;;;;;;;8.80;3.53;;;;;;;;;;8334712;28;20321;-62
2022/11/24 19:19:47;;;;;;;19.85;6.30;;;;;;;;;;8336902;28;20029;-62
2022/11/24 19:23:48;;;;;;;14.13;6.20;;;;;;;;;;8335243;28;20031;-64
2022/11/24 19:27:48;;;;;;;14.18;5.30;;;;;;;;;;8335522;28;20338;-62
2022/11/24 19:31:48;;;;;;;14.45;4.65;;;;;;;;;;8337818;28;20411;-62
2022/11/24 19:35:57;;;;;;;15.82;4.65;;;;;;;;;;8336306;28;20067;-61
2022/11/24 19:39:57;;;;;;;13.68;3.80;;;;;;;;;;8337459;28;20021;-61
2022/11/24 19:43:58;;;;;;;10.00;3.30;;;;;;;;;;8335953;28;20012;-62
2022/11/24 19:47:58;;;;;;;6.60;2.95;;;;;;;;;;8337790;28;20089;-62
2022/11/24 19:52:00;;;;;;;11.85;3.33;;;;;;;;;;8334651;28;20452;-62
2022/11/24 19:56:04;;;;;;;9.73;3.97;;;;;;;;;;8335988;28;20020;-62
2022/11/24 20:00:05;;;;;;;11.65;5.20;;;;;;;;;;8335313;28;20020;-62
2022/11/24 20:04:07;;;;;;;12.60;5.38;;;;;;;;;;8333917;28;20222;-62
2022/11/24 20:08:07;;;;;;;12.52;4.75;;;;;;;;;;8335117;28;20059;-62
2022/11/24 20:12:08;;;;;;;14.90;5.03;;;;;;;;;;8333867;28;20025;-62
2022/11/24 20:16:13;;;;;;;16.05;5.43;;;;;;;;;;8333673;28;20045;-62
2022/11/24 20:20:13;;;;;;;22.20;7.50;;;;;;;;;;8335078;28;20068;-62
2022/11/24 20:24:18;;;;;;;24.13;8.70;;;;;;;;;;8332792;28;20035;-61
2022/11/24 20:28:18;;;;;;;20.83;8.00;;;;;;;;;;8335480;28;20583;-62
2022/11/24 20:32:19;;;;;;;20.30;8.30;;;;;;;;;;8335549;28;20032;-62
2022/11/24 20:36:21;;;;;;;25.02;10.35;;;;;;;;;;8330624;28;20805;-62
2022/11/24 20:40:21;;;;;;;29.75;12.85;;;;;;;;;;8334107;28;20029;-62
2022/11/24 20:44:22;;;;;;;33.47;11.25;;;;;;;;;;8332194;28;20031;-62
2022/11/24 20:48:22;;;;;;;17.10;5.65;;;;;;;;;;8335412;28;20029;-61
2022/11/24 20:52:23;;;;;;;19.67;7.40;;;;;;;;;;8334647;28;20024;-62
2022/11/24 20:56:24;;;;;;;18.90;8.20;;;;;;;;;;8334398;28;20139;-62
2022/11/24 21:00:24;;;;;;;17.20;7.20;;;;;;;;;;8334226;28;20266;-62
2022/11/24 21:04:25;;;;;;;11.45;3.67;;;;;;;;;;8331919;28;20028;-62
2022/11/24 21:08:25;;;;;;;10.73;3.38;;;;;;;;;;8333005;28;20021;-62
2022/11/24 21:12:27;;;;;;;10.90;3.23;;;;;;;;;;8335118;28;20031;-62
2022/11/24 21:16:27;;;;;;;8.20;2.72;;;;;;;;;;8332676;28;20326;-62
2022/11/24 21:20:27;;;;;;;10.70;2.93;;;;;;;;;;8335414;28;20029;-62
2022/11/24 21:24:29;;;;;;;11.10;3.95;;;;;;;;;;8334319;28;20276;-61
2022/11/24 21:28:30;;;;;;;10.23;4.00;;;;;;;;;;8334676;28;20469;-61
2022/11/24 21:32:31;;;;;;;13.23;4.10;;;;;;;;;;8316211;28;20064;-62
2022/11/24 21:36:32;;;;;;;15.15;4.60;;;;;;;;;;8333348;28;20037;-61
2022/11/24 21:40:34;;;;;;;15.05;4.80;;;;;;;;;;8334619;28;20484;-62
2022/11/24 21:44:35;;;;;;;13.43;4.88;;;;;;;;;;8335634;28;20013;-62
2022/11/24 21:48:37;;;;;;;20.30;5.13;;;;;;;;;;8333658;28;20044;-63
2022/11/24 21:52:37;;;;;;;8.70;3.45;;;;;;;;;;8334113;28;20016;-62
2022/11/24 21:56:37;;;;;;;12.25;2.78;;;;;;;;;;8338217;28;20060;-62
2022/11/24 22:00:38;;;;;;;13.43;2.72;;;;;;;;;;8338608;28;20039;-62
2022/11/24 22:04:38;;;;;;;12.20;2.67;;;;;;;;;;8339395;28;20021;-61
2022/11/24 22:08:38;;;;;;;9.18;4.78;;;;;;;;;;8341350;28;20028;-62
2022/11/24 22:12:38;;;;;;;9.40;3.95;;;;;;;;;;8340666;28;20029;-63
2022/11/24 22:16:39;;;;;;;8.48;3.08;;;;;;;;;;8335598;28;20789;-61
2022/11/24 22:20:39;;;;;;;7.55;2.95;;;;;;;;;;8340935;28;20029;-62
2022/11/24 22:24:39;;;;;;;8.63;2.40;;;;;;;;;;8340564;28;20028;-66
2022/11/24 22:28:40;;;;;;;6.43;2.40;;;;;;;;;;8339587;28;20094;-61
2022/11/24 22:32:40;;;;;;;7.55;2.25;;;;;;;;;;8337743;28;20044;-62
2022/11/24 22:36:40;;;;;;;5.72;2.20;;;;;;;;;;8337786;28;20117;-62
2022/11/24 22:40:40;;;;;;;11.32;2.28;;;;;;;;;;8338257;28;20032;-62
2022/11/24 22:44:41;;;;;;;5.60;2.30;;;;;;;;;;8338266;28;20082;-62
2022/11/24 22:48:41;;;;;;;7.10;1.92;;;;;;;;;;8336363;28;20331;-62
2022/11/24 22:52:41;;;;;;;6.78;2.10;;;;;;;;;;8338871;28;20021;-62
2022/11/24 22:56:41;;;;;;;7.00;2.00;;;;;;;;;;8338027;28;20816;-61
2022/11/24 23:00:42;;;;;;;7.25;2.10;;;;;;;;;;8336965;28;20705;-62
2022/11/24 23:04:42;;;;;;;14.20;3.05;;;;;;;;;;8337197;28;20477;-63
2022/11/24 23:08:43;;;;;;;7.05;2.30;;;;;;;;;;8337926;28;20021;-62
2022/11/24 23:12:43;;;;;;;6.25;2.13;;;;;;;;;;8336555;28;20032;-62
2022/11/24 23:16:43;;;;;;;6.80;1.97;;;;;;;;;;8339648;28;20990;-61
2022/11/24 23:20:43;;;;;;;7.37;1.80;;;;;;;;;;8337389;28;20616;-62
2022/11/24 23:24:43;;;;;;;5.23;1.60;;;;;;;;;;8336756;28;20374;-62
2022/11/24 23:28:44;;;;;;;3.38;1.70;;;;;;;;;;8337087;28;20295;-62
2022/11/24 23:32:44;;;;;;;7.93;2.20;;;;;;;;;;8334814;28;20082;-61
2022/11/24 23:36:45;;;;;;;9.38;2.30;;;;;;;;;;8335741;28;20040;-61
2022/11/24 23:40:45;;;;;;;6.60;2.20;;;;;;;;;;8336990;28;20784;-62
2022/11/24 23:44:46;;;;;;;6.45;1.92;;;;;;;;;;8335854;28;20032;-61
2022/11/24 23:48:46;;;;;;;11.15;2.97;;;;;;;;;;8336270;28;20037;-61
2022/11/24 23:52:46;;;;;;;11.23;2.10;;;;;;;;;;8335484;28;20035;-62
2022/11/24 23:56:47;;;;;;;6.82;1.92;;;;;;;;;;8337713;28;20043;-61
